PIA0230 OPIS-OPSD
Flight info
| Callsign | PIA0230 |
|---|---|
| Flight time | N/A |
| Altitude | 27000 |
| Route | BOBAM DCT KAGLO J186 KAPMI DCT BUNGI DCT BIREB |
| Aircraft | MU2/L-SDGIRY/LB1 |
Departure
| Time | 2026-04-30 10:24 |
|---|---|
| Airport | Islamabad International Airport (OPIS) |
Arrival
| Time | N/A |
|---|---|
| Airport | Skardu International Airport (OPSD) |
| Time | Latitude | Longitude | Altitude | Speed | Heading |
|---|---|---|---|---|---|
| 2026-04-30 10:03 | 33.55405 | 72.83711 | 1781 ft | 0 kts | 10° |
| 2026-04-30 10:20 | 33.55407 | 72.83711 | 1781 ft | 0 kts | 11° |
| 2026-04-30 10:20 | 33.55403 | 72.83741 | 1781 ft | 11 kts | 178° |
| 2026-04-30 10:21 | 33.55321 | 72.83692 | 1775 ft | 15 kts | 264° |
| 2026-04-30 10:21 | 33.55304 | 72.83566 | 1771 ft | 16 kts | 234° |
| 2026-04-30 10:21 | 33.55186 | 72.83519 | 1761 ft | 20 kts | 195° |
| 2026-04-30 10:21 | 33.55051 | 72.83527 | 1751 ft | 21 kts | 123° |
| 2026-04-30 10:22 | 33.55017 | 72.83683 | 1752 ft | 17 kts | 102° |
| 2026-04-30 10:22 | 33.54997 | 72.83826 | 1750 ft | 17 kts | 99° |
| 2026-04-30 10:22 | 33.54951 | 72.83969 | 1747 ft | 21 kts | 159° |
| 2026-04-30 10:22 | 33.54783 | 72.83948 | 1735 ft | 26 kts | 191° |
| 2026-04-30 10:23 | 33.54613 | 72.83882 | 1722 ft | 25 kts | 252° |
| 2026-04-30 10:23 | 33.54680 | 72.83450 | 1734 ft | 101 kts | 281° |
| 2026-04-30 10:23 | 33.54841 | 72.82385 | 1832 ft | 150 kts | 282° |
| 2026-04-30 10:23 | 33.55005 | 72.81084 | 2187 ft | 162 kts | 262° |
| 2026-04-30 10:24 | 33.54567 | 72.79850 | 2788 ft | 170 kts | 237° |
| 2026-04-30 10:24 | 33.53780 | 72.78764 | 3357 ft | 176 kts | 218° |
| 2026-04-30 10:24 | 33.52679 | 72.78186 | 3925 ft | 178 kts | 186° |
| 2026-04-30 10:24 | 33.51473 | 72.78535 | 4308 ft | 189 kts | 145° |
| 2026-04-30 10:25 | 33.50637 | 72.79765 | 4756 ft | 193 kts | 114° |
| 2026-04-30 10:25 | 33.50305 | 72.81304 | 5253 ft | 193 kts | 101° |
| 2026-04-30 10:25 | 33.49905 | 72.82865 | 5519 ft | 206 kts | 115° |
| 2026-04-30 10:25 | 33.49261 | 72.84454 | 5624 ft | 220 kts | 105° |
| 2026-04-30 10:26 | 33.49043 | 72.86282 | 5850 ft | 224 kts | 95° |
| 2026-04-30 10:26 | 33.48934 | 72.88156 | 6147 ft | 224 kts | 94° |
| 2026-04-30 10:26 | 33.48838 | 72.90014 | 6437 ft | 224 kts | 93° |
| 2026-04-30 10:26 | 33.48743 | 72.91874 | 6725 ft | 224 kts | 93° |
| 2026-04-30 10:27 | 33.48648 | 72.93744 | 7012 ft | 224 kts | 93° |
| 2026-04-30 10:27 | 33.48553 | 72.95598 | 7294 ft | 224 kts | 93° |
| 2026-04-30 10:27 | 33.48458 | 72.97455 | 7573 ft | 224 kts | 93° |
| 2026-04-30 10:27 | 33.48526 | 72.99294 | 7824 ft | 224 kts | 73° |
| 2026-04-30 10:28 | 33.49130 | 73.01004 | 8100 ft | 224 kts | 64° |
| 2026-04-30 10:28 | 33.49844 | 73.02675 | 8377 ft | 224 kts | 62° |
| 2026-04-30 10:28 | 33.50555 | 73.04307 | 8672 ft | 223 kts | 62° |
| 2026-04-30 10:28 | 33.51279 | 73.05967 | 8983 ft | 224 kts | 62° |
| 2026-04-30 10:29 | 33.52005 | 73.07632 | 9296 ft | 225 kts | 62° |
| 2026-04-30 10:29 | 33.52730 | 73.09295 | 9606 ft | 226 kts | 62° |
| 2026-04-30 10:29 | 33.53458 | 73.10963 | 9923 ft | 228 kts | 62° |
| 2026-04-30 10:29 | 33.54198 | 73.12661 | 10242 ft | 228 kts | 62° |
| 2026-04-30 10:30 | 33.54932 | 73.14344 | 10562 ft | 231 kts | 62° |
| 2026-04-30 10:30 | 33.55677 | 73.16054 | 10890 ft | 232 kts | 62° |
| 2026-04-30 10:30 | 33.56463 | 73.17735 | 11199 ft | 233 kts | 51° |
| 2026-04-30 10:30 | 33.57825 | 73.18739 | 11491 ft | 234 kts | 14° |
| 2026-04-30 10:31 | 33.59427 | 73.18639 | 11791 ft | 235 kts | 343° |
| 2026-04-30 10:31 | 33.60970 | 73.17963 | 12128 ft | 234 kts | 338° |
| 2026-04-30 10:31 | 33.62461 | 73.17201 | 12455 ft | 234 kts | 336° |
| 2026-04-30 10:31 | 33.63953 | 73.16415 | 12780 ft | 233 kts | 336° |
| 2026-04-30 10:32 | 33.65442 | 73.15629 | 13101 ft | 233 kts | 336° |
| 2026-04-30 10:32 | 33.66926 | 73.14844 | 13418 ft | 233 kts | 336° |
| 2026-04-30 10:32 | 33.68397 | 73.14066 | 13728 ft | 233 kts | 336° |
| 2026-04-30 10:32 | 33.69894 | 73.13275 | 14041 ft | 233 kts | 336° |
| 2026-04-30 10:33 | 33.71367 | 73.12495 | 14345 ft | 233 kts | 336° |
| 2026-04-30 10:33 | 33.72841 | 73.11716 | 14647 ft | 233 kts | 336° |
| 2026-04-30 10:33 | 33.74332 | 73.10926 | 14949 ft | 233 kts | 336° |
| 2026-04-30 10:33 | 33.75811 | 73.10143 | 15245 ft | 232 kts | 336° |
| 2026-04-30 10:34 | 33.77284 | 73.09362 | 15534 ft | 232 kts | 336° |
| 2026-04-30 10:34 | 33.78757 | 73.08581 | 15820 ft | 232 kts | 336° |
| 2026-04-30 10:34 | 33.80254 | 73.07788 | 16107 ft | 232 kts | 336° |
| 2026-04-30 10:34 | 33.81729 | 73.07005 | 16386 ft | 232 kts | 336° |
| 2026-04-30 10:35 | 33.83196 | 73.06226 | 16660 ft | 232 kts | 336° |
| 2026-04-30 10:35 | 33.84682 | 73.05437 | 16934 ft | 232 kts | 336° |
| 2026-04-30 10:35 | 33.86151 | 73.04657 | 17202 ft | 232 kts | 336° |
| 2026-04-30 10:35 | 33.87627 | 73.03873 | 17468 ft | 232 kts | 336° |
| 2026-04-30 10:36 | 33.89103 | 73.03088 | 17730 ft | 232 kts | 336° |
| 2026-04-30 10:36 | 33.90578 | 73.02305 | 17989 ft | 232 kts | 336° |
| 2026-04-30 10:36 | 33.92056 | 73.01518 | 18246 ft | 232 kts | 336° |
| 2026-04-30 10:36 | 33.93531 | 73.00733 | 18499 ft | 232 kts | 336° |
| 2026-04-30 10:37 | 33.95017 | 72.99942 | 18751 ft | 232 kts | 336° |
| 2026-04-30 10:37 | 33.96485 | 72.99161 | 18997 ft | 232 kts | 336° |
| 2026-04-30 10:37 | 33.97962 | 72.98374 | 19243 ft | 232 kts | 336° |
| 2026-04-30 10:37 | 33.99475 | 72.97713 | 19459 ft | 232 kts | 354° |
| 2026-04-30 10:38 | 34.01049 | 72.98121 | 19656 ft | 233 kts | 30° |
| 2026-04-30 10:38 | 34.02164 | 72.99500 | 19864 ft | 233 kts | 53° |
| 2026-04-30 10:38 | 34.03185 | 73.01019 | 20106 ft | 232 kts | 50° |
| 2026-04-30 10:38 | 34.04230 | 73.02480 | 20342 ft | 232 kts | 49° |
| 2026-04-30 10:39 | 34.05291 | 73.03951 | 20576 ft | 232 kts | 49° |
| 2026-04-30 10:39 | 34.06347 | 73.05413 | 20800 ft | 232 kts | 49° |
| 2026-04-30 10:39 | 34.07437 | 73.06921 | 20862 ft | 239 kts | 49° |
| 2026-04-30 10:39 | 34.08544 | 73.08453 | 20878 ft | 246 kts | 49° |
| 2026-04-30 10:40 | 34.09681 | 73.10027 | 20885 ft | 252 kts | 49° |
| 2026-04-30 10:40 | 34.10850 | 73.11648 | 20891 ft | 255 kts | 49° |
| 2026-04-30 10:40 | 34.12011 | 73.13258 | 20897 ft | 256 kts | 49° |
| 2026-04-30 10:40 | 34.13185 | 73.14885 | 20903 ft | 258 kts | 49° |
| 2026-04-30 10:41 | 34.14363 | 73.16521 | 20911 ft | 258 kts | 49° |
| 2026-04-30 10:41 | 34.15543 | 73.18160 | 20918 ft | 259 kts | 49° |
| 2026-04-30 10:41 | 34.16728 | 73.19804 | 20925 ft | 260 kts | 49° |
| 2026-04-30 10:41 | 34.17911 | 73.21448 | 20932 ft | 260 kts | 49° |
| 2026-04-30 10:42 | 34.19089 | 73.23086 | 20939 ft | 260 kts | 49° |
| 2026-04-30 10:42 | 34.20280 | 73.24742 | 20946 ft | 260 kts | 49° |
| 2026-04-30 10:42 | 34.21472 | 73.26401 | 20947 ft | 261 kts | 49° |
| 2026-04-30 10:42 | 34.22663 | 73.28059 | 20944 ft | 261 kts | 49° |
| 2026-04-30 10:43 | 34.23838 | 73.29696 | 20940 ft | 261 kts | 49° |
| 2026-04-30 10:43 | 34.25043 | 73.31374 | 20937 ft | 261 kts | 49° |
| 2026-04-30 10:43 | 34.26233 | 73.33034 | 20935 ft | 262 kts | 49° |
| 2026-04-30 10:43 | 34.27413 | 73.34681 | 20934 ft | 262 kts | 49° |
| 2026-04-30 10:44 | 34.28604 | 73.36342 | 20934 ft | 262 kts | 49° |
| 2026-04-30 10:44 | 34.29799 | 73.38010 | 20935 ft | 262 kts | 49° |
| 2026-04-30 10:44 | 34.30992 | 73.39677 | 20937 ft | 262 kts | 49° |
| 2026-04-30 10:44 | 34.32184 | 73.41343 | 20940 ft | 262 kts | 49° |
| 2026-04-30 10:45 | 34.33374 | 73.43007 | 20943 ft | 261 kts | 49° |
| 2026-04-30 10:45 | 34.34553 | 73.44654 | 20946 ft | 261 kts | 48° |
| 2026-04-30 10:45 | 34.35935 | 73.46081 | 20959 ft | 261 kts | 35° |
| 2026-04-30 10:45 | 34.37423 | 73.47347 | 20961 ft | 261 kts | 35° |
| 2026-04-30 10:46 | 34.38888 | 73.48632 | 20969 ft | 261 kts | 36° |
| 2026-04-30 10:46 | 34.40364 | 73.49941 | 20977 ft | 261 kts | 36° |
| 2026-04-30 10:46 | 34.41818 | 73.51234 | 20993 ft | 261 kts | 36° |
| 2026-04-30 10:46 | 34.43294 | 73.52547 | 21012 ft | 261 kts | 36° |
| 2026-04-30 10:47 | 34.44756 | 73.53848 | 21032 ft | 260 kts | 36° |
| 2026-04-30 10:47 | 34.46207 | 73.55138 | 21051 ft | 260 kts | 36° |
| 2026-04-30 10:47 | 34.47665 | 73.56437 | 21070 ft | 260 kts | 36° |
| 2026-04-30 10:47 | 34.49125 | 73.57737 | 21089 ft | 260 kts | 36° |
| 2026-04-30 10:48 | 34.50591 | 73.59045 | 21109 ft | 260 kts | 36° |
| 2026-04-30 10:48 | 34.52043 | 73.60339 | 21129 ft | 260 kts | 36° |
| 2026-04-30 10:48 | 34.53509 | 73.61647 | 21149 ft | 260 kts | 36° |
| 2026-04-30 10:48 | 34.54959 | 73.62940 | 21169 ft | 260 kts | 36° |
| 2026-04-30 10:49 | 34.56425 | 73.64249 | 21188 ft | 261 kts | 36° |
| 2026-04-30 10:49 | 34.57891 | 73.65559 | 21206 ft | 261 kts | 37° |
| 2026-04-30 10:49 | 34.59357 | 73.66869 | 21224 ft | 261 kts | 37° |
| 2026-04-30 10:49 | 34.60815 | 73.68172 | 21242 ft | 261 kts | 37° |
| 2026-04-30 10:50 | 34.62287 | 73.69488 | 21259 ft | 261 kts | 37° |
| 2026-04-30 10:50 | 34.63739 | 73.70788 | 21275 ft | 262 kts | 37° |
| 2026-04-30 10:50 | 34.65216 | 73.72109 | 21291 ft | 262 kts | 37° |
| 2026-04-30 10:50 | 34.66673 | 73.73414 | 21306 ft | 262 kts | 37° |
| 2026-04-30 10:51 | 34.68148 | 73.74736 | 21320 ft | 263 kts | 37° |
| 2026-04-30 10:51 | 34.69608 | 73.76045 | 21316 ft | 263 kts | 37° |
| 2026-04-30 10:51 | 34.71090 | 73.77374 | 21313 ft | 263 kts | 37° |
| 2026-04-30 10:51 | 34.72554 | 73.78688 | 21311 ft | 263 kts | 37° |
| 2026-04-30 10:52 | 34.74026 | 73.80009 | 21309 ft | 263 kts | 37° |
| 2026-04-30 10:52 | 34.75492 | 73.81325 | 21304 ft | 263 kts | 37° |
| 2026-04-30 10:52 | 34.76975 | 73.82657 | 21296 ft | 262 kts | 37° |
| 2026-04-30 10:52 | 34.78437 | 73.83971 | 21290 ft | 262 kts | 37° |
| 2026-04-30 10:53 | 34.79899 | 73.85286 | 21285 ft | 262 kts | 37° |
| 2026-04-30 10:53 | 34.81377 | 73.86616 | 21280 ft | 262 kts | 37° |
| 2026-04-30 10:53 | 34.82837 | 73.87929 | 21276 ft | 262 kts | 37° |
| 2026-04-30 10:53 | 34.84298 | 73.89245 | 21272 ft | 262 kts | 37° |
| 2026-04-30 10:54 | 34.85775 | 73.90576 | 21269 ft | 262 kts | 37° |
| 2026-04-30 10:54 | 34.87237 | 73.91893 | 21267 ft | 262 kts | 37° |
| 2026-04-30 10:54 | 34.88708 | 73.93220 | 21266 ft | 262 kts | 37° |
| 2026-04-30 10:54 | 34.90171 | 73.94540 | 21266 ft | 262 kts | 37° |
| 2026-04-30 10:55 | 34.91636 | 73.95862 | 21266 ft | 262 kts | 37° |
| 2026-04-30 10:55 | 34.93116 | 73.97199 | 21268 ft | 262 kts | 37° |
| 2026-04-30 10:55 | 34.94570 | 73.98512 | 21270 ft | 263 kts | 37° |
| 2026-04-30 10:55 | 34.96046 | 73.99846 | 21274 ft | 263 kts | 37° |
| 2026-04-30 10:56 | 34.97508 | 74.01167 | 21278 ft | 263 kts | 37° |
| 2026-04-30 10:56 | 34.98986 | 74.02505 | 21282 ft | 263 kts | 37° |
| 2026-04-30 10:56 | 35.00444 | 74.03824 | 21284 ft | 263 kts | 37° |
| 2026-04-30 10:56 | 35.01918 | 74.05158 | 21284 ft | 263 kts | 37° |
| 2026-04-30 10:57 | 35.03376 | 74.06479 | 21285 ft | 263 kts | 37° |
| 2026-04-30 10:57 | 35.04856 | 74.07820 | 21286 ft | 263 kts | 37° |
| 2026-04-30 10:57 | 35.06320 | 74.09148 | 21288 ft | 263 kts | 37° |
| 2026-04-30 10:57 | 35.07780 | 74.10471 | 21290 ft | 263 kts | 37° |
| 2026-04-30 10:58 | 35.09238 | 74.11794 | 21293 ft | 263 kts | 37° |
| 2026-04-30 10:58 | 35.10720 | 74.13140 | 21296 ft | 263 kts | 37° |
| 2026-04-30 10:58 | 35.12183 | 74.14469 | 21299 ft | 263 kts | 37° |
| 2026-04-30 10:58 | 35.13663 | 74.15814 | 21303 ft | 263 kts | 37° |
| 2026-04-30 10:59 | 35.15125 | 74.17144 | 21307 ft | 263 kts | 37° |
| 2026-04-30 10:59 | 35.16585 | 74.18471 | 21311 ft | 263 kts | 37° |
| 2026-04-30 10:59 | 35.18065 | 74.19818 | 21316 ft | 263 kts | 37° |
| 2026-04-30 10:59 | 35.19530 | 74.21152 | 21321 ft | 263 kts | 37° |
| 2026-04-30 11:00 | 35.20995 | 74.22485 | 21326 ft | 263 kts | 37° |
| 2026-04-30 11:00 | 35.22456 | 74.23817 | 21332 ft | 263 kts | 37° |
| 2026-04-30 11:00 | 35.23943 | 74.25172 | 21338 ft | 264 kts | 37° |
| 2026-04-30 11:00 | 35.25408 | 74.26509 | 21336 ft | 264 kts | 37° |
| 2026-04-30 11:01 | 35.26884 | 74.27856 | 21325 ft | 264 kts | 37° |
| 2026-04-30 11:01 | 35.28354 | 74.29198 | 21318 ft | 263 kts | 37° |
| 2026-04-30 11:01 | 35.29818 | 74.30536 | 21311 ft | 263 kts | 37° |
| 2026-04-30 11:01 | 35.31225 | 74.31825 | 21283 ft | 241 kts | 37° |
| 2026-04-30 11:02 | 35.32541 | 74.32959 | 21041 ft | 224 kts | 31° |
| 2026-04-30 11:02 | 35.33950 | 74.33695 | 20339 ft | 204 kts | 0° |
| 2026-04-30 11:02 | 35.34959 | 74.32998 | 19316 ft | 186 kts | 306° |
| 2026-04-30 11:02 | 35.35937 | 74.32139 | 18033 ft | 179 kts | 348° |
| 2026-04-30 11:03 | 35.37085 | 74.32275 | 16947 ft | 166 kts | 18° |
| 2026-04-30 11:03 | 35.38018 | 74.32907 | 16093 ft | 152 kts | 40° |
| 2026-04-30 11:03 | 35.38694 | 74.33806 | 15285 ft | 145 kts | 55° |
| 2026-04-30 11:04 | 35.39684 | 74.35786 | 13844 ft | 133 kts | 56° |
| 2026-04-30 11:04 | 35.40132 | 74.36749 | 13035 ft | 135 kts | 62° |
| 2026-04-30 11:04 | 35.40413 | 74.37793 | 12207 ft | 133 kts | 88° |